sensor_id;sensor_type;location;lat;lon;timestamp;P1;durP1;ratioP1;P2;durP2;ratioP2
47764;SDS011;33529;49.242;8.670;2023-07-28T00:00:52;5.82;;;4.40;;
47764;SDS011;33529;49.242;8.670;2023-07-28T00:03:19;5.68;;;4.30;;
47764;SDS011;33529;49.242;8.670;2023-07-28T00:05:46;5.45;;;4.50;;
47764;SDS011;33529;49.242;8.670;2023-07-28T00:08:12;7.78;;;4.40;;
47764;SDS011;33529;49.242;8.670;2023-07-28T00:10:42;9.52;;;6.60;;
47764;SDS011;33529;49.242;8.670;2023-07-28T00:13:09;6.05;;;4.53;;
47764;SDS011;33529;49.242;8.670;2023-07-28T00:15:36;10.07;;;7.25;;
47764;SDS011;33529;49.242;8.670;2023-07-28T00:18:03;5.97;;;5.30;;
47764;SDS011;33529;49.242;8.670;2023-07-28T00:20:30;6.03;;;4.75;;
47764;SDS011;33529;49.242;8.670;2023-07-28T00:22:58;8.68;;;4.47;;
47764;SDS011;33529;49.242;8.670;2023-07-28T00:25:25;5.80;;;4.65;;
47764;SDS011;33529;49.242;8.670;2023-07-28T00:27:52;7.20;;;4.28;;
47764;SDS011;33529;49.242;8.670;2023-07-28T00:30:19;9.13;;;5.35;;
47764;SDS011;33529;49.242;8.670;2023-07-28T00:32:48;6.57;;;4.63;;
47764;SDS011;33529;49.242;8.670;2023-07-28T00:35:15;6.05;;;4.10;;
47764;SDS011;33529;49.242;8.670;2023-07-28T00:37:42;5.28;;;3.90;;
47764;SDS011;33529;49.242;8.670;2023-07-28T00:40:09;5.97;;;4.13;;
47764;SDS011;33529;49.242;8.670;2023-07-28T00:42:36;7.40;;;4.28;;
47764;SDS011;33529;49.242;8.670;2023-07-28T00:45:05;6.10;;;4.93;;
47764;SDS011;33529;49.242;8.670;2023-07-28T00:47:32;5.72;;;3.90;;
47764;SDS011;33529;49.242;8.670;2023-07-28T00:49:59;6.22;;;4.80;;
47764;SDS011;33529;49.242;8.670;2023-07-28T00:52:26;5.65;;;4.45;;
47764;SDS011;33529;49.242;8.670;2023-07-28T00:54:53;6.78;;;5.18;;
47764;SDS011;33529;49.242;8.670;2023-07-28T00:57:20;5.60;;;4.30;;
47764;SDS011;33529;49.242;8.670;2023-07-28T00:59:47;6.60;;;4.03;;
47764;SDS011;33529;49.242;8.670;2023-07-28T01:02:17;6.95;;;4.57;;
47764;SDS011;33529;49.242;8.670;2023-07-28T01:04:44;5.05;;;4.00;;
47764;SDS011;33529;49.242;8.670;2023-07-28T01:07:14;6.35;;;4.70;;
47764;SDS011;33529;49.242;8.670;2023-07-28T01:09:47;7.05;;;4.72;;
47764;SDS011;33529;49.242;8.670;2023-07-28T01:12:20;6.05;;;4.75;;
47764;SDS011;33529;49.242;8.670;2023-07-28T01:14:47;7.88;;;4.72;;
47764;SDS011;33529;49.242;8.670;2023-07-28T01:17:13;6.97;;;4.72;;
47764;SDS011;33529;49.242;8.670;2023-07-28T01:19:42;7.57;;;4.15;;
47764;SDS011;33529;49.242;8.670;2023-07-28T01:27:52;6.93;;;4.32;;
47764;SDS011;33529;49.242;8.670;2023-07-28T01:30:20;5.97;;;4.63;;
47764;SDS011;33529;49.242;8.670;2023-07-28T01:32:47;5.18;;;4.20;;
47764;SDS011;33529;49.242;8.670;2023-07-28T01:35:15;6.00;;;4.70;;
47764;SDS011;33529;49.242;8.670;2023-07-28T01:37:42;6.47;;;4.28;;
47764;SDS011;33529;49.242;8.670;2023-07-28T01:40:09;6.85;;;4.50;;
47764;SDS011;33529;49.242;8.670;2023-07-28T01:42:35;5.53;;;4.05;;
47764;SDS011;33529;49.242;8.670;2023-07-28T01:45:02;6.70;;;4.93;;
47764;SDS011;33529;49.242;8.670;2023-07-28T01:47:30;5.32;;;4.22;;
47764;SDS011;33529;49.242;8.670;2023-07-28T01:49:57;7.40;;;5.90;;
47764;SDS011;33529;49.242;8.670;2023-07-28T01:52:24;7.35;;;4.80;;
47764;SDS011;33529;49.242;8.670;2023-07-28T01:54:52;6.78;;;4.85;;
47764;SDS011;33529;49.242;8.670;2023-07-28T01:57:19;8.02;;;4.57;;
47764;SDS011;33529;49.242;8.670;2023-07-28T01:59:46;5.78;;;4.05;;
47764;SDS011;33529;49.242;8.670;2023-07-28T02:02:12;5.57;;;3.97;;
47764;SDS011;33529;49.242;8.670;2023-07-28T02:04:40;5.13;;;4.10;;
47764;SDS011;33529;49.242;8.670;2023-07-28T02:07:06;5.60;;;3.58;;
47764;SDS011;33529;49.242;8.670;2023-07-28T02:09:33;6.05;;;3.17;;
47764;SDS011;33529;49.242;8.670;2023-07-28T02:12:00;6.10;;;4.32;;
47764;SDS011;33529;49.242;8.670;2023-07-28T02:14:27;4.95;;;3.97;;
47764;SDS011;33529;49.242;8.670;2023-07-28T02:16:54;5.45;;;3.80;;
47764;SDS011;33529;49.242;8.670;2023-07-28T02:19:21;5.78;;;4.68;;
47764;SDS011;33529;49.242;8.670;2023-07-28T02:21:48;6.60;;;4.32;;
47764;SDS011;33529;49.242;8.670;2023-07-28T02:24:15;5.43;;;4.53;;
47764;SDS011;33529;49.242;8.670;2023-07-28T02:26:42;8.65;;;4.53;;
47764;SDS011;33529;49.242;8.670;2023-07-28T02:29:09;5.05;;;4.00;;
47764;SDS011;33529;49.242;8.670;2023-07-28T02:31:36;5.35;;;4.03;;
47764;SDS011;33529;49.242;8.670;2023-07-28T02:34:03;6.05;;;4.20;;
47764;SDS011;33529;49.242;8.670;2023-07-28T02:36:29;5.25;;;4.03;;
47764;SDS011;33529;49.242;8.670;2023-07-28T02:38:57;5.50;;;4.38;;
47764;SDS011;33529;49.242;8.670;2023-07-28T02:41:24;6.10;;;3.80;;
47764;SDS011;33529;49.242;8.670;2023-07-28T02:43:51;4.60;;;3.50;;
47764;SDS011;33529;49.242;8.670;2023-07-28T02:46:18;6.60;;;3.65;;
47764;SDS011;33529;49.242;8.670;2023-07-28T02:48:45;5.63;;;3.70;;
47764;SDS011;33529;49.242;8.670;2023-07-28T02:51:12;5.70;;;3.70;;
47764;SDS011;33529;49.242;8.670;2023-07-28T02:53:39;6.18;;;3.22;;
47764;SDS011;33529;49.242;8.670;2023-07-28T02:56:06;5.32;;;3.58;;
47764;SDS011;33529;49.242;8.670;2023-07-28T02:58:32;5.55;;;3.85;;
47764;SDS011;33529;49.242;8.670;2023-07-28T03:00:59;5.30;;;3.70;;
47764;SDS011;33529;49.242;8.670;2023-07-28T03:03:34;7.00;;;4.30;;
47764;SDS011;33529;49.242;8.670;2023-07-28T03:06:01;6.45;;;4.60;;
47764;SDS011;33529;49.242;8.670;2023-07-28T03:08:27;6.15;;;4.20;;
47764;SDS011;33529;49.242;8.670;2023-07-28T03:11:09;5.63;;;3.78;;
47764;SDS011;33529;49.242;8.670;2023-07-28T03:13:36;7.63;;;4.32;;
47764;SDS011;33529;49.242;8.670;2023-07-28T03:16:03;8.35;;;4.47;;
47764;SDS011;33529;49.242;8.670;2023-07-28T03:18:30;7.38;;;3.72;;
47764;SDS011;33529;49.242;8.670;2023-07-28T03:20:58;5.38;;;4.10;;
47764;SDS011;33529;49.242;8.670;2023-07-28T03:23:25;5.72;;;4.45;;
47764;SDS011;33529;49.242;8.670;2023-07-28T03:25:52;8.25;;;4.30;;
47764;SDS011;33529;49.242;8.670;2023-07-28T03:28:19;9.65;;;4.95;;
47764;SDS011;33529;49.242;8.670;2023-07-28T03:30:46;5.22;;;4.55;;
47764;SDS011;33529;49.242;8.670;2023-07-28T03:33:13;5.75;;;4.72;;
47764;SDS011;33529;49.242;8.670;2023-07-28T03:35:39;6.60;;;4.90;;
47764;SDS011;33529;49.242;8.670;2023-07-28T03:38:09;6.60;;;4.38;;
47764;SDS011;33529;49.242;8.670;2023-07-28T03:40:35;7.10;;;4.40;;
47764;SDS011;33529;49.242;8.670;2023-07-28T03:43:03;5.65;;;4.30;;
47764;SDS011;33529;49.242;8.670;2023-07-28T03:45:30;5.50;;;4.03;;
47764;SDS011;33529;49.242;8.670;2023-07-28T03:47:57;7.28;;;5.00;;
47764;SDS011;33529;49.242;8.670;2023-07-28T03:50:24;6.32;;;4.50;;
47764;SDS011;33529;49.242;8.670;2023-07-28T03:52:52;4.95;;;3.90;;
47764;SDS011;33529;49.242;8.670;2023-07-28T03:55:19;8.38;;;4.57;;
47764;SDS011;33529;49.242;8.670;2023-07-28T03:57:46;5.63;;;4.45;;
47764;SDS011;33529;49.242;8.670;2023-07-28T04:00:13;6.28;;;4.15;;
47764;SDS011;33529;49.242;8.670;2023-07-28T04:02:40;5.00;;;4.25;;
47764;SDS011;33529;49.242;8.670;2023-07-28T04:05:07;4.78;;;4.22;;
47764;SDS011;33529;49.242;8.670;2023-07-28T04:07:34;6.03;;;4.78;;
47764;SDS011;33529;49.242;8.670;2023-07-28T04:10:01;5.75;;;4.32;;
47764;SDS011;33529;49.242;8.670;2023-07-28T04:12:28;6.72;;;4.13;;
47764;SDS011;33529;49.242;8.670;2023-07-28T04:14:55;6.97;;;4.15;;
47764;SDS011;33529;49.242;8.670;2023-07-28T04:17:23;6.40;;;4.18;;
47764;SDS011;33529;49.242;8.670;2023-07-28T04:19:50;5.65;;;3.72;;
47764;SDS011;33529;49.242;8.670;2023-07-28T04:22:17;6.32;;;3.83;;
47764;SDS011;33529;49.242;8.670;2023-07-28T04:24:49;5.28;;;3.90;;
47764;SDS011;33529;49.242;8.670;2023-07-28T04:27:18;5.78;;;4.47;;
47764;SDS011;33529;49.242;8.670;2023-07-28T04:29:45;5.95;;;4.07;;
47764;SDS011;33529;49.242;8.670;2023-07-28T04:32:15;4.70;;;3.93;;
47764;SDS011;33529;49.242;8.670;2023-07-28T04:34:43;6.03;;;4.55;;
47764;SDS011;33529;49.242;8.670;2023-07-28T04:37:34;6.63;;;3.83;;
47764;SDS011;33529;49.242;8.670;2023-07-28T04:40:01;5.70;;;4.15;;
47764;SDS011;33529;49.242;8.670;2023-07-28T04:42:33;5.38;;;4.00;;
47764;SDS011;33529;49.242;8.670;2023-07-28T04:45:00;6.20;;;4.13;;
47764;SDS011;33529;49.242;8.670;2023-07-28T04:47:27;5.80;;;4.55;;
47764;SDS011;33529;49.242;8.670;2023-07-28T04:49:54;5.97;;;4.85;;
47764;SDS011;33529;49.242;8.670;2023-07-28T04:52:40;6.93;;;4.90;;
47764;SDS011;33529;49.242;8.670;2023-07-28T04:55:39;7.13;;;4.90;;
47764;SDS011;33529;49.242;8.670;2023-07-28T04:58:06;5.97;;;4.72;;
47764;SDS011;33529;49.242;8.670;2023-07-28T05:00:48;7.10;;;5.38;;
47764;SDS011;33529;49.242;8.670;2023-07-28T05:03:15;5.18;;;4.18;;
47764;SDS011;33529;49.242;8.670;2023-07-28T05:05:50;6.90;;;4.88;;
47764;SDS011;33529;49.242;8.670;2023-07-28T05:08:17;6.65;;;4.65;;
47764;SDS011;33529;49.242;8.670;2023-07-28T05:10:43;7.07;;;4.93;;
47764;SDS011;33529;49.242;8.670;2023-07-28T05:13:11;5.03;;;4.25;;
47764;SDS011;33529;49.242;8.670;2023-07-28T05:15:43;6.32;;;4.78;;
47764;SDS011;33529;49.242;8.670;2023-07-28T05:18:20;6.78;;;4.88;;
47764;SDS011;33529;49.242;8.670;2023-07-28T05:21:01;5.68;;;5.10;;
47764;SDS011;33529;49.242;8.670;2023-07-28T05:23:28;8.77;;;5.93;;
47764;SDS011;33529;49.242;8.670;2023-07-28T05:25:55;7.68;;;5.35;;
47764;SDS011;33529;49.242;8.670;2023-07-28T05:28:22;7.00;;;5.07;;
47764;SDS011;33529;49.242;8.670;2023-07-28T05:30:53;6.15;;;5.40;;
47764;SDS011;33529;49.242;8.670;2023-07-28T05:33:20;8.57;;;4.70;;
47764;SDS011;33529;49.242;8.670;2023-07-28T05:35:48;6.82;;;5.35;;
47764;SDS011;33529;49.242;8.670;2023-07-28T05:38:29;7.28;;;5.38;;
47764;SDS011;33529;49.242;8.670;2023-07-28T05:40:59;6.60;;;5.38;;
47764;SDS011;33529;49.242;8.670;2023-07-28T05:43:27;8.02;;;5.78;;
47764;SDS011;33529;49.242;8.670;2023-07-28T05:45:56;6.57;;;5.20;;
47764;SDS011;33529;49.242;8.670;2023-07-28T05:48:25;5.72;;;4.85;;
47764;SDS011;33529;49.242;8.670;2023-07-28T05:50:52;5.85;;;5.03;;
47764;SDS011;33529;49.242;8.670;2023-07-28T05:53:22;5.88;;;5.10;;
47764;SDS011;33529;49.242;8.670;2023-07-28T05:55:56;6.10;;;5.20;;
47764;SDS011;33529;49.242;8.670;2023-07-28T05:58:25;5.95;;;4.60;;
47764;SDS011;33529;49.242;8.670;2023-07-28T06:00:52;6.55;;;4.90;;
47764;SDS011;33529;49.242;8.670;2023-07-28T06:03:39;8.02;;;4.97;;
47764;SDS011;33529;49.242;8.670;2023-07-28T06:06:16;7.38;;;5.53;;
47764;SDS011;33529;49.242;8.670;2023-07-28T06:08:44;6.35;;;5.13;;
47764;SDS011;33529;49.242;8.670;2023-07-28T06:11:11;6.53;;;5.60;;
47764;SDS011;33529;49.242;8.670;2023-07-28T06:13:37;8.43;;;5.75;;
47764;SDS011;33529;49.242;8.670;2023-07-28T06:16:04;6.03;;;4.70;;
47764;SDS011;33529;49.242;8.670;2023-07-28T06:18:31;5.93;;;4.78;;
47764;SDS011;33529;49.242;8.670;2023-07-28T06:21:06;6.70;;;5.13;;
47764;SDS011;33529;49.242;8.670;2023-07-28T06:23:33;6.65;;;4.70;;
47764;SDS011;33529;49.242;8.670;2023-07-28T06:26:02;5.53;;;4.93;;
47764;SDS011;33529;49.242;8.670;2023-07-28T06:28:29;6.40;;;4.43;;
47764;SDS011;33529;49.242;8.670;2023-07-28T06:30:57;6.18;;;5.25;;
47764;SDS011;33529;49.242;8.670;2023-07-28T06:33:27;5.90;;;4.25;;
47764;SDS011;33529;49.242;8.670;2023-07-28T06:35:55;7.40;;;3.70;;
47764;SDS011;33529;49.242;8.670;2023-07-28T06:38:22;5.53;;;3.78;;
47764;SDS011;33529;49.242;8.670;2023-07-28T06:40:49;6.35;;;3.70;;
47764;SDS011;33529;49.242;8.670;2023-07-28T06:43:16;5.82;;;3.78;;
47764;SDS011;33529;49.242;8.670;2023-07-28T06:45:46;5.72;;;3.45;;
47764;SDS011;33529;49.242;8.670;2023-07-28T06:48:16;4.38;;;2.80;;
47764;SDS011;33529;49.242;8.670;2023-07-28T06:50:43;5.38;;;3.28;;
47764;SDS011;33529;49.242;8.670;2023-07-28T06:53:10;4.18;;;3.00;;
47764;SDS011;33529;49.242;8.670;2023-07-28T06:55:37;3.95;;;2.85;;
47764;SDS011;33529;49.242;8.670;2023-07-28T06:58:05;4.05;;;2.60;;
47764;SDS011;33529;49.242;8.670;2023-07-28T07:00:33;4.95;;;2.50;;
47764;SDS011;33529;49.242;8.670;2023-07-28T07:03:00;4.15;;;2.58;;
47764;SDS011;33529;49.242;8.670;2023-07-28T07:05:28;3.67;;;2.53;;
47764;SDS011;33529;49.242;8.670;2023-07-28T07:07:54;4.47;;;2.95;;
47764;SDS011;33529;49.242;8.670;2023-07-28T07:10:21;3.85;;;2.70;;
47764;SDS011;33529;49.242;8.670;2023-07-28T07:12:48;3.80;;;2.70;;
47764;SDS011;33529;49.242;8.670;2023-07-28T07:15:15;4.18;;;2.40;;
47764;SDS011;33529;49.242;8.670;2023-07-28T07:17:43;4.65;;;2.90;;
47764;SDS011;33529;49.242;8.670;2023-07-28T07:20:10;3.83;;;2.25;;
47764;SDS011;33529;49.242;8.670;2023-07-28T07:22:39;4.07;;;2.42;;
47764;SDS011;33529;49.242;8.670;2023-07-28T07:25:06;4.40;;;2.40;;
47764;SDS011;33529;49.242;8.670;2023-07-28T07:27:33;3.95;;;2.97;;
47764;SDS011;33529;49.242;8.670;2023-07-28T07:30:00;3.60;;;2.40;;
47764;SDS011;33529;49.242;8.670;2023-07-28T07:32:27;4.72;;;2.00;;
47764;SDS011;33529;49.242;8.670;2023-07-28T07:34:54;3.78;;;2.30;;
47764;SDS011;33529;49.242;8.670;2023-07-28T07:37:20;3.83;;;2.40;;
47764;SDS011;33529;49.242;8.670;2023-07-28T07:39:47;3.40;;;2.45;;
47764;SDS011;33529;49.242;8.670;2023-07-28T07:42:14;4.55;;;2.75;;
47764;SDS011;33529;49.242;8.670;2023-07-28T07:44:41;5.53;;;2.88;;
47764;SDS011;33529;49.242;8.670;2023-07-28T07:47:12;3.78;;;2.45;;
47764;SDS011;33529;49.242;8.670;2023-07-28T07:49:41;3.72;;;2.50;;
47764;SDS011;33529;49.242;8.670;2023-07-28T07:52:09;3.67;;;2.92;;
47764;SDS011;33529;49.242;8.670;2023-07-28T07:54:36;3.80;;;2.58;;
47764;SDS011;33529;49.242;8.670;2023-07-28T07:57:04;4.22;;;2.28;;
47764;SDS011;33529;49.242;8.670;2023-07-28T07:59:31;4.30;;;2.47;;
47764;SDS011;33529;49.242;8.670;2023-07-28T08:02:03;4.03;;;2.55;;
47764;SDS011;33529;49.242;8.670;2023-07-28T08:04:31;4.60;;;3.10;;
47764;SDS011;33529;49.242;8.670;2023-07-28T08:06:58;3.95;;;2.45;;
47764;SDS011;33529;49.242;8.670;2023-07-28T08:09:25;4.40;;;2.45;;
47764;SDS011;33529;49.242;8.670;2023-07-28T08:11:52;3.70;;;2.38;;
47764;SDS011;33529;49.242;8.670;2023-07-28T08:14:19;5.28;;;2.40;;
47764;SDS011;33529;49.242;8.670;2023-07-28T08:16:46;4.93;;;2.80;;
47764;SDS011;33529;49.242;8.670;2023-07-28T08:19:13;4.47;;;2.97;;
47764;SDS011;33529;49.242;8.670;2023-07-28T08:21:40;4.28;;;2.60;;
47764;SDS011;33529;49.242;8.670;2023-07-28T08:24:06;3.40;;;2.50;;
47764;SDS011;33529;49.242;8.670;2023-07-28T08:26:34;3.92;;;2.58;;
47764;SDS011;33529;49.242;8.670;2023-07-28T08:29:01;5.30;;;3.33;;
47764;SDS011;33529;49.242;8.670;2023-07-28T08:31:28;3.90;;;2.92;;
47764;SDS011;33529;49.242;8.670;2023-07-28T08:33:55;4.25;;;3.22;;
47764;SDS011;33529;49.242;8.670;2023-07-28T08:36:22;4.38;;;2.70;;
47764;SDS011;33529;49.242;8.670;2023-07-28T08:38:48;4.32;;;2.60;;
47764;SDS011;33529;49.242;8.670;2023-07-28T08:41:15;3.80;;;2.40;;
47764;SDS011;33529;49.242;8.670;2023-07-28T08:43:42;3.47;;;2.22;;
47764;SDS011;33529;49.242;8.670;2023-07-28T08:46:09;4.20;;;2.40;;
47764;SDS011;33529;49.242;8.670;2023-07-28T08:48:36;4.57;;;2.33;;
47764;SDS011;33529;49.242;8.670;2023-07-28T08:51:03;4.85;;;2.67;;
47764;SDS011;33529;49.242;8.670;2023-07-28T08:53:30;5.88;;;3.03;;
47764;SDS011;33529;49.242;8.670;2023-07-28T08:55:57;4.63;;;2.08;;
47764;SDS011;33529;49.242;8.670;2023-07-28T08:58:24;3.70;;;2.38;;
47764;SDS011;33529;49.242;8.670;2023-07-28T09:00:52;2.92;;;2.03;;
47764;SDS011;33529;49.242;8.670;2023-07-28T09:03:19;3.70;;;2.22;;
47764;SDS011;33529;49.242;8.670;2023-07-28T09:05:47;3.90;;;2.08;;
47764;SDS011;33529;49.242;8.670;2023-07-28T09:08:14;3.95;;;2.50;;
47764;SDS011;33529;49.242;8.670;2023-07-28T09:13:17;4.03;;;2.38;;
47764;SDS011;33529;49.242;8.670;2023-07-28T09:15:45;3.45;;;2.10;;
47764;SDS011;33529;49.242;8.670;2023-07-28T09:18:14;2.92;;;2.17;;
47764;SDS011;33529;49.242;8.670;2023-07-28T09:20:43;3.92;;;2.13;;
47764;SDS011;33529;49.242;8.670;2023-07-28T09:23:10;4.50;;;2.42;;
47764;SDS011;33529;49.242;8.670;2023-07-28T09:25:39;3.50;;;1.90;;
47764;SDS011;33529;49.242;8.670;2023-07-28T09:28:06;3.83;;;2.38;;
47764;SDS011;33529;49.242;8.670;2023-07-28T09:30:46;3.33;;;2.00;;
47764;SDS011;33529;49.242;8.670;2023-07-28T09:33:28;3.72;;;2.28;;
47764;SDS011;33529;49.242;8.670;2023-07-28T09:35:56;4.40;;;2.60;;
47764;SDS011;33529;49.242;8.670;2023-07-28T09:38:24;4.47;;;2.30;;
47764;SDS011;33529;49.242;8.670;2023-07-28T09:40:54;3.72;;;2.30;;
47764;SDS011;33529;49.242;8.670;2023-07-28T09:43:23;3.83;;;2.17;;
47764;SDS011;33529;49.242;8.670;2023-07-28T09:45:50;3.38;;;2.03;;
47764;SDS011;33529;49.242;8.670;2023-07-28T09:48:17;3.58;;;2.20;;
47764;SDS011;33529;49.242;8.670;2023-07-28T09:50:45;3.08;;;1.85;;
47764;SDS011;33529;49.242;8.670;2023-07-28T09:53:12;3.67;;;2.28;;
47764;SDS011;33529;49.242;8.670;2023-07-28T09:55:40;3.17;;;2.05;;
47764;SDS011;33529;49.242;8.670;2023-07-28T09:58:09;3.05;;;2.15;;
47764;SDS011;33529;49.242;8.670;2023-07-28T10:00:39;4.80;;;1.98;;
47764;SDS011;33529;49.242;8.670;2023-07-28T10:03:07;3.65;;;2.00;;
47764;SDS011;33529;49.242;8.670;2023-07-28T10:05:36;3.70;;;2.10;;
47764;SDS011;33529;49.242;8.670;2023-07-28T10:08:03;3.50;;;2.20;;
47764;SDS011;33529;49.242;8.670;2023-07-28T10:10:31;3.30;;;2.08;;
47764;SDS011;33529;49.242;8.670;2023-07-28T10:12:59;2.78;;;1.95;;
47764;SDS011;33529;49.242;8.670;2023-07-28T10:15:30;3.45;;;2.22;;
47764;SDS011;33529;49.242;8.670;2023-07-28T10:17:58;3.38;;;1.77;;
47764;SDS011;33529;49.242;8.670;2023-07-28T10:20:37;2.97;;;1.33;;
47764;SDS011;33529;49.242;8.670;2023-07-28T10:23:12;2.25;;;1.58;;
47764;SDS011;33529;49.242;8.670;2023-07-28T10:25:43;2.72;;;1.77;;
47764;SDS011;33529;49.242;8.670;2023-07-28T10:31:01;2.95;;;1.85;;
47764;SDS011;33529;49.242;8.670;2023-07-28T10:33:30;2.60;;;1.35;;
47764;SDS011;33529;49.242;8.670;2023-07-28T10:39:01;2.65;;;1.73;;
47764;SDS011;33529;49.242;8.670;2023-07-28T10:41:29;3.03;;;1.73;;
47764;SDS011;33529;49.242;8.670;2023-07-28T10:43:59;3.95;;;1.55;;
47764;SDS011;33529;49.242;8.670;2023-07-28T10:46:26;3.08;;;1.80;;
47764;SDS011;33529;49.242;8.670;2023-07-28T10:48:53;3.55;;;1.83;;
47764;SDS011;33529;49.242;8.670;2023-07-28T10:51:29;3.08;;;1.90;;
47764;SDS011;33529;49.242;8.670;2023-07-28T10:54:00;2.58;;;1.70;;
47764;SDS011;33529;49.242;8.670;2023-07-28T10:56:29;3.00;;;1.73;;
47764;SDS011;33529;49.242;8.670;2023-07-28T10:58:57;3.25;;;1.65;;
47764;SDS011;33529;49.242;8.670;2023-07-28T11:01:36;3.03;;;1.83;;
47764;SDS011;33529;49.242;8.670;2023-07-28T11:04:06;2.45;;;1.52;;
47764;SDS011;33529;49.242;8.670;2023-07-28T11:06:32;3.38;;;1.77;;
47764;SDS011;33529;49.242;8.670;2023-07-28T11:08:59;3.75;;;1.98;;
47764;SDS011;33529;49.242;8.670;2023-07-28T11:11:27;2.60;;;1.70;;
47764;SDS011;33529;49.242;8.670;2023-07-28T11:13:54;3.75;;;2.15;;
47764;SDS011;33529;49.242;8.670;2023-07-28T11:16:21;3.50;;;2.05;;
47764;SDS011;33529;49.242;8.670;2023-07-28T11:18:47;3.17;;;2.00;;
47764;SDS011;33529;49.242;8.670;2023-07-28T11:21:17;3.10;;;1.80;;
47764;SDS011;33529;49.242;8.670;2023-07-28T11:23:45;3.10;;;1.70;;
47764;SDS011;33529;49.242;8.670;2023-07-28T11:26:12;3.40;;;1.85;;
47764;SDS011;33529;49.242;8.670;2023-07-28T11:28:39;2.83;;;1.70;;
47764;SDS011;33529;49.242;8.670;2023-07-28T11:31:06;2.67;;;1.60;;
47764;SDS011;33529;49.242;8.670;2023-07-28T11:33:35;2.47;;;1.23;;
47764;SDS011;33529;49.242;8.670;2023-07-28T11:36:02;3.35;;;1.60;;
47764;SDS011;33529;49.242;8.670;2023-07-28T11:38:29;4.70;;;1.65;;
47764;SDS011;33529;49.242;8.670;2023-07-28T11:40:56;2.55;;;1.38;;
47764;SDS011;33529;49.242;8.670;2023-07-28T11:43:23;2.30;;;1.33;;
47764;SDS011;33529;49.242;8.670;2023-07-28T11:45:51;2.90;;;1.75;;
47764;SDS011;33529;49.242;8.670;2023-07-28T11:48:18;2.33;;;1.48;;
47764;SDS011;33529;49.242;8.670;2023-07-28T11:50:45;1.55;;;1.05;;
47764;SDS011;33529;49.242;8.670;2023-07-28T11:53:12;2.30;;;1.20;;
47764;SDS011;33529;49.242;8.670;2023-07-28T11:55:40;2.80;;;1.20;;
47764;SDS011;33529;49.242;8.670;2023-07-28T11:58:08;2.33;;;1.30;;
47764;SDS011;33529;49.242;8.670;2023-07-28T12:00:36;2.60;;;1.50;;
47764;SDS011;33529;49.242;8.670;2023-07-28T12:05:41;2.58;;;1.45;;
47764;SDS011;33529;49.242;8.670;2023-07-28T12:08:39;3.45;;;1.67;;
47764;SDS011;33529;49.242;8.670;2023-07-28T12:11:11;2.17;;;1.40;;
47764;SDS011;33529;49.242;8.670;2023-07-28T12:13:49;2.65;;;1.50;;
47764;SDS011;33529;49.242;8.670;2023-07-28T12:16:39;4.53;;;1.42;;
47764;SDS011;33529;49.242;8.670;2023-07-28T12:19:12;2.60;;;1.50;;
47764;SDS011;33529;49.242;8.670;2023-07-28T12:21:40;2.75;;;1.50;;
47764;SDS011;33529;49.242;8.670;2023-07-28T12:24:07;2.67;;;1.48;;
47764;SDS011;33529;49.242;8.670;2023-07-28T12:26:34;2.80;;;1.60;;
47764;SDS011;33529;49.242;8.670;2023-07-28T12:29:05;2.83;;;1.77;;
47764;SDS011;33529;49.242;8.670;2023-07-28T12:31:35;2.38;;;1.45;;
47764;SDS011;33529;49.242;8.670;2023-07-28T12:34:05;3.65;;;1.80;;
47764;SDS011;33529;49.242;8.670;2023-07-28T12:36:32;4.78;;;1.98;;
47764;SDS011;33529;49.242;8.670;2023-07-28T12:39:03;3.25;;;1.85;;
47764;SDS011;33529;49.242;8.670;2023-07-28T12:44:04;4.07;;;2.22;;
47764;SDS011;33529;49.242;8.670;2023-07-28T12:46:32;3.13;;;1.80;;
47764;SDS011;33529;49.242;8.670;2023-07-28T12:48:59;5.28;;;2.30;;
47764;SDS011;33529;49.242;8.670;2023-07-28T12:51:26;3.97;;;2.25;;
47764;SDS011;33529;49.242;8.670;2023-07-28T12:53:56;3.73;;;2.40;;
47764;SDS011;33529;49.242;8.670;2023-07-28T12:56:23;4.07;;;2.10;;
47764;SDS011;33529;49.242;8.670;2023-07-28T12:58:53;3.83;;;2.17;;
47764;SDS011;33529;49.242;8.670;2023-07-28T13:01:23;4.43;;;2.25;;
47764;SDS011;33529;49.242;8.670;2023-07-28T13:03:52;5.35;;;2.38;;
47764;SDS011;33529;49.242;8.670;2023-07-28T13:06:19;6.70;;;3.10;;
47764;SDS011;33529;49.242;8.670;2023-07-28T13:08:47;3.20;;;2.40;;
47764;SDS011;33529;49.242;8.670;2023-07-28T13:11:16;4.95;;;3.15;;
47764;SDS011;33529;49.242;8.670;2023-07-28T13:13:57;4.57;;;3.17;;
47764;SDS011;33529;49.242;8.670;2023-07-28T13:16:24;4.72;;;2.92;;
47764;SDS011;33529;49.242;8.670;2023-07-28T13:18:51;4.32;;;3.22;;
47764;SDS011;33529;49.242;8.670;2023-07-28T13:21:18;4.68;;;3.05;;
47764;SDS011;33529;49.242;8.670;2023-07-28T13:23:45;4.07;;;3.05;;
47764;SDS011;33529;49.242;8.670;2023-07-28T13:26:12;6.05;;;3.70;;
47764;SDS011;33529;49.242;8.670;2023-07-28T13:28:39;4.85;;;2.63;;
47764;SDS011;33529;49.242;8.670;2023-07-28T13:31:09;4.35;;;3.03;;
47764;SDS011;33529;49.242;8.670;2023-07-28T13:33:36;4.32;;;2.80;;
47764;SDS011;33529;49.242;8.670;2023-07-28T13:36:03;4.60;;;2.60;;
47764;SDS011;33529;49.242;8.670;2023-07-28T13:38:33;3.90;;;2.35;;
47764;SDS011;33529;49.242;8.670;2023-07-28T13:41:01;6.43;;;3.83;;
47764;SDS011;33529;49.242;8.670;2023-07-28T13:43:30;4.55;;;3.20;;
47764;SDS011;33529;49.242;8.670;2023-07-28T13:45:57;4.60;;;2.95;;
47764;SDS011;33529;49.242;8.670;2023-07-28T13:48:24;3.75;;;2.53;;
47764;SDS011;33529;49.242;8.670;2023-07-28T13:50:52;5.57;;;2.78;;
47764;SDS011;33529;49.242;8.670;2023-07-28T13:53:22;3.63;;;2.22;;
47764;SDS011;33529;49.242;8.670;2023-07-28T13:55:52;7.23;;;2.53;;
47764;SDS011;33529;49.242;8.670;2023-07-28T13:58:23;3.80;;;2.80;;
47764;SDS011;33529;49.242;8.670;2023-07-28T14:00:50;4.75;;;3.15;;
47764;SDS011;33529;49.242;8.670;2023-07-28T14:03:17;4.75;;;3.20;;
47764;SDS011;33529;49.242;8.670;2023-07-28T14:05:44;5.55;;;2.88;;
47764;SDS011;33529;49.242;8.670;2023-07-28T14:08:12;4.00;;;2.42;;
47764;SDS011;33529;49.242;8.670;2023-07-28T14:10:44;4.00;;;2.45;;
47764;SDS011;33529;49.242;8.670;2023-07-28T14:13:11;4.07;;;2.78;;
47764;SDS011;33529;49.242;8.670;2023-07-28T14:15:39;4.68;;;2.85;;
47764;SDS011;33529;49.242;8.670;2023-07-28T14:18:07;4.40;;;2.95;;
47764;SDS011;33529;49.242;8.670;2023-07-28T14:20:34;4.35;;;2.67;;
47764;SDS011;33529;49.242;8.670;2023-07-28T14:23:00;5.28;;;3.50;;
47764;SDS011;33529;49.242;8.670;2023-07-28T14:25:28;4.75;;;2.75;;
47764;SDS011;33529;49.242;8.670;2023-07-28T14:27:54;4.45;;;2.92;;
47764;SDS011;33529;49.242;8.670;2023-07-28T14:30:22;6.80;;;2.72;;
47764;SDS011;33529;49.242;8.670;2023-07-28T14:32:49;4.75;;;2.90;;
47764;SDS011;33529;49.242;8.670;2023-07-28T14:35:15;3.83;;;2.60;;
47764;SDS011;33529;49.242;8.670;2023-07-28T14:37:42;4.80;;;2.67;;
47764;SDS011;33529;49.242;8.670;2023-07-28T14:40:09;4.70;;;2.95;;
47764;SDS011;33529;49.242;8.670;2023-07-28T14:42:37;4.28;;;2.80;;
47764;SDS011;33529;49.242;8.670;2023-07-28T14:45:05;3.97;;;2.85;;
47764;SDS011;33529;49.242;8.670;2023-07-28T14:47:32;4.45;;;3.00;;
47764;SDS011;33529;49.242;8.670;2023-07-28T14:49:59;4.32;;;2.55;;
47764;SDS011;33529;49.242;8.670;2023-07-28T14:52:26;4.88;;;2.47;;
47764;SDS011;33529;49.242;8.670;2023-07-28T14:54:53;4.13;;;3.08;;
47764;SDS011;33529;49.242;8.670;2023-07-28T14:57:20;4.60;;;2.70;;
47764;SDS011;33529;49.242;8.670;2023-07-28T15:00:00;4.47;;;3.22;;
47764;SDS011;33529;49.242;8.670;2023-07-28T15:02:27;4.35;;;3.03;;
47764;SDS011;33529;49.242;8.670;2023-07-28T15:04:54;5.72;;;3.60;;
47764;SDS011;33529;49.242;8.670;2023-07-28T15:07:20;4.13;;;2.75;;
47764;SDS011;33529;49.242;8.670;2023-07-28T15:09:49;4.50;;;2.72;;
47764;SDS011;33529;49.242;8.670;2023-07-28T15:12:16;3.63;;;2.58;;
47764;SDS011;33529;49.242;8.670;2023-07-28T15:14:42;4.13;;;2.60;;